sensor_id;sensor_type;location;lat;lon;timestamp;pressure;altitude;pressure_sealevel;temperature;humidity
21574;BME280;10948;48.706;9.258;2023-05-16T00:02:21;97429.22;;;12.54;100.00
21574;BME280;10948;48.706;9.258;2023-05-16T00:04:46;97431.75;;;12.43;100.00
21574;BME280;10948;48.706;9.258;2023-05-16T00:07:12;97425.25;;;12.49;100.00
21574;BME280;10948;48.706;9.258;2023-05-16T00:09:37;97422.41;;;12.75;100.00
21574;BME280;10948;48.706;9.258;2023-05-16T00:12:03;97422.53;;;12.50;100.00
21574;BME280;10948;48.706;9.258;2023-05-16T00:14:28;97425.81;;;12.65;100.00
21574;BME280;10948;48.706;9.258;2023-05-16T00:16:54;97429.13;;;12.67;100.00
21574;BME280;10948;48.706;9.258;2023-05-16T00:19:21;97429.38;;;12.64;100.00
21574;BME280;10948;48.706;9.258;2023-05-16T00:21:47;97425.72;;;12.43;100.00
21574;BME280;10948;48.706;9.258;2023-05-16T00:24:12;97435.03;;;12.58;100.00
21574;BME280;10948;48.706;9.258;2023-05-16T00:26:37;97431.03;;;12.18;100.00
21574;BME280;10948;48.706;9.258;2023-05-16T00:29:03;97424.81;;;12.55;100.00
21574;BME280;10948;48.706;9.258;2023-05-16T00:31:28;97426.34;;;12.81;100.00
21574;BME280;10948;48.706;9.258;2023-05-16T00:33:53;97425.38;;;12.47;100.00
21574;BME280;10948;48.706;9.258;2023-05-16T00:36:19;97426.59;;;12.31;100.00
21574;BME280;10948;48.706;9.258;2023-05-16T00:38:45;97433.84;;;12.15;100.00
21574;BME280;10948;48.706;9.258;2023-05-16T00:41:10;97433.06;;;12.25;100.00
21574;BME280;10948;48.706;9.258;2023-05-16T00:43:36;97428.59;;;12.51;100.00
21574;BME280;10948;48.706;9.258;2023-05-16T00:46:01;97426.81;;;12.28;100.00
21574;BME280;10948;48.706;9.258;2023-05-16T00:48:26;97425.66;;;12.08;100.00
21574;BME280;10948;48.706;9.258;2023-05-16T00:50:52;97429.59;;;12.61;100.00
21574;BME280;10948;48.706;9.258;2023-05-16T00:53:18;97421.31;;;12.43;100.00
21574;BME280;10948;48.706;9.258;2023-05-16T00:55:43;97424.09;;;12.29;100.00
21574;BME280;10948;48.706;9.258;2023-05-16T00:58:09;97425.19;;;11.91;100.00
21574;BME280;10948;48.706;9.258;2023-05-16T01:00:35;97428.50;;;11.93;100.00
21574;BME280;10948;48.706;9.258;2023-05-16T01:03:01;97428.91;;;11.99;100.00
21574;BME280;10948;48.706;9.258;2023-05-16T01:05:28;97425.81;;;12.18;100.00
21574;BME280;10948;48.706;9.258;2023-05-16T01:07:54;97417.50;;;12.36;100.00
21574;BME280;10948;48.706;9.258;2023-05-16T01:10:19;97425.16;;;12.27;100.00
21574;BME280;10948;48.706;9.258;2023-05-16T01:13:05;97420.00;;;12.02;100.00
21574;BME280;10948;48.706;9.258;2023-05-16T01:15:38;97423.41;;;12.15;100.00
21574;BME280;10948;48.706;9.258;2023-05-16T01:18:15;97415.72;;;12.37;100.00
21574;BME280;10948;48.706;9.258;2023-05-16T01:20:48;97420.81;;;12.15;100.00
21574;BME280;10948;48.706;9.258;2023-05-16T01:23:34;97417.66;;;12.22;100.00
21574;BME280;10948;48.706;9.258;2023-05-16T01:26:17;97416.25;;;12.06;100.00
21574;BME280;10948;48.706;9.258;2023-05-16T01:28:45;97415.47;;;11.93;100.00
21574;BME280;10948;48.706;9.258;2023-05-16T01:31:11;97419.28;;;12.36;100.00
21574;BME280;10948;48.706;9.258;2023-05-16T01:33:37;97427.50;;;11.83;100.00
21574;BME280;10948;48.706;9.258;2023-05-16T01:36:10;97416.56;;;11.78;100.00
21574;BME280;10948;48.706;9.258;2023-05-16T01:38:42;97416.47;;;11.79;100.00
21574;BME280;10948;48.706;9.258;2023-05-16T01:41:18;97415.47;;;11.93;100.00
21574;BME280;10948;48.706;9.258;2023-05-16T01:43:47;97418.72;;;12.20;100.00
21574;BME280;10948;48.706;9.258;2023-05-16T01:46:14;97421.09;;;11.99;100.00
21574;BME280;10948;48.706;9.258;2023-05-16T01:48:52;97416.69;;;12.00;100.00
21574;BME280;10948;48.706;9.258;2023-05-16T01:51:23;97416.31;;;11.81;100.00
21574;BME280;10948;48.706;9.258;2023-05-16T01:53:51;97415.03;;;11.63;100.00
21574;BME280;10948;48.706;9.258;2023-05-16T01:56:17;97420.59;;;11.82;100.00
21574;BME280;10948;48.706;9.258;2023-05-16T01:58:43;97425.03;;;12.05;100.00
21574;BME280;10948;48.706;9.258;2023-05-16T02:01:11;97424.63;;;12.22;100.00
21574;BME280;10948;48.706;9.258;2023-05-16T02:03:37;97426.31;;;11.87;100.00
21574;BME280;10948;48.706;9.258;2023-05-16T02:06:02;97419.50;;;11.61;100.00
21574;BME280;10948;48.706;9.258;2023-05-16T02:08:27;97429.03;;;11.85;100.00
21574;BME280;10948;48.706;9.258;2023-05-16T02:10:53;97417.41;;;12.02;100.00
21574;BME280;10948;48.706;9.258;2023-05-16T02:13:18;97427.94;;;11.77;100.00
21574;BME280;10948;48.706;9.258;2023-05-16T02:15:43;97423.19;;;11.82;100.00
21574;BME280;10948;48.706;9.258;2023-05-16T02:18:08;97427.28;;;11.86;100.00
21574;BME280;10948;48.706;9.258;2023-05-16T02:20:34;97424.19;;;12.04;100.00
21574;BME280;10948;48.706;9.258;2023-05-16T02:22:59;97424.00;;;11.95;100.00
21574;BME280;10948;48.706;9.258;2023-05-16T02:25:25;97423.63;;;11.88;100.00
21574;BME280;10948;48.706;9.258;2023-05-16T02:27:50;97424.78;;;12.08;100.00
21574;BME280;10948;48.706;9.258;2023-05-16T02:30:15;97427.72;;;12.16;100.00
21574;BME280;10948;48.706;9.258;2023-05-16T02:32:40;97431.41;;;12.01;100.00
21574;BME280;10948;48.706;9.258;2023-05-16T02:35:09;97432.78;;;11.94;100.00
21574;BME280;10948;48.706;9.258;2023-05-16T02:37:34;97433.81;;;12.04;100.00
21574;BME280;10948;48.706;9.258;2023-05-16T02:39:59;97433.56;;;12.07;100.00
21574;BME280;10948;48.706;9.258;2023-05-16T02:42:25;97434.44;;;11.95;100.00
21574;BME280;10948;48.706;9.258;2023-05-16T02:44:51;97428.34;;;12.07;100.00
21574;BME280;10948;48.706;9.258;2023-05-16T02:47:17;97432.53;;;12.09;100.00
21574;BME280;10948;48.706;9.258;2023-05-16T02:49:42;97431.38;;;12.37;100.00
21574;BME280;10948;48.706;9.258;2023-05-16T02:52:07;97429.59;;;12.14;100.00
21574;BME280;10948;48.706;9.258;2023-05-16T02:54:32;97431.13;;;11.93;100.00
21574;BME280;10948;48.706;9.258;2023-05-16T02:56:57;97431.81;;;12.31;100.00
21574;BME280;10948;48.706;9.258;2023-05-16T02:59:23;97429.16;;;12.20;100.00
21574;BME280;10948;48.706;9.258;2023-05-16T03:01:48;97430.44;;;12.02;100.00
21574;BME280;10948;48.706;9.258;2023-05-16T03:04:13;97431.56;;;12.23;100.00
21574;BME280;10948;48.706;9.258;2023-05-16T03:06:38;97428.03;;;12.35;100.00
21574;BME280;10948;48.706;9.258;2023-05-16T03:09:04;97421.94;;;12.47;100.00
21574;BME280;10948;48.706;9.258;2023-05-16T03:11:29;97417.06;;;12.19;100.00
21574;BME280;10948;48.706;9.258;2023-05-16T03:13:54;97415.81;;;12.12;100.00
21574;BME280;10948;48.706;9.258;2023-05-16T03:16:19;97420.41;;;11.85;100.00
21574;BME280;10948;48.706;9.258;2023-05-16T03:18:45;97424.59;;;12.11;100.00
21574;BME280;10948;48.706;9.258;2023-05-16T03:21:11;97425.38;;;12.24;100.00
21574;BME280;10948;48.706;9.258;2023-05-16T03:23:36;97422.50;;;12.39;100.00
21574;BME280;10948;48.706;9.258;2023-05-16T03:26:01;97426.03;;;12.38;100.00
21574;BME280;10948;48.706;9.258;2023-05-16T03:28:26;97427.41;;;12.55;100.00
21574;BME280;10948;48.706;9.258;2023-05-16T03:30:51;97421.91;;;12.36;100.00
21574;BME280;10948;48.706;9.258;2023-05-16T03:33:17;97428.19;;;12.44;100.00
21574;BME280;10948;48.706;9.258;2023-05-16T03:35:43;97441.81;;;12.37;100.00
21574;BME280;10948;48.706;9.258;2023-05-16T03:38:08;97433.69;;;12.29;100.00
21574;BME280;10948;48.706;9.258;2023-05-16T03:40:34;97440.38;;;12.33;100.00
21574;BME280;10948;48.706;9.258;2023-05-16T03:42:59;97437.47;;;12.25;100.00
21574;BME280;10948;48.706;9.258;2023-05-16T03:45:25;97439.69;;;12.42;100.00
21574;BME280;10948;48.706;9.258;2023-05-16T03:47:50;97437.69;;;12.22;100.00
21574;BME280;10948;48.706;9.258;2023-05-16T03:50:15;97436.69;;;12.12;100.00
21574;BME280;10948;48.706;9.258;2023-05-16T03:52:41;97438.78;;;12.07;100.00
21574;BME280;10948;48.706;9.258;2023-05-16T03:55:06;97428.16;;;12.10;100.00
21574;BME280;10948;48.706;9.258;2023-05-16T03:57:32;97440.22;;;11.87;100.00
21574;BME280;10948;48.706;9.258;2023-05-16T03:59:57;97434.19;;;12.10;100.00
21574;BME280;10948;48.706;9.258;2023-05-16T04:02:23;97438.41;;;12.00;100.00
21574;BME280;10948;48.706;9.258;2023-05-16T04:04:48;97431.56;;;12.10;100.00
21574;BME280;10948;48.706;9.258;2023-05-16T04:07:13;97445.66;;;12.08;100.00
21574;BME280;10948;48.706;9.258;2023-05-16T04:09:39;97445.38;;;12.36;100.00
21574;BME280;10948;48.706;9.258;2023-05-16T04:12:04;97451.34;;;12.49;100.00
21574;BME280;10948;48.706;9.258;2023-05-16T04:14:30;97456.88;;;12.33;100.00
21574;BME280;10948;48.706;9.258;2023-05-16T04:16:55;97458.19;;;12.39;100.00
21574;BME280;10948;48.706;9.258;2023-05-16T04:19:21;97464.09;;;12.30;100.00
21574;BME280;10948;48.706;9.258;2023-05-16T04:21:46;97460.44;;;12.20;100.00
21574;BME280;10948;48.706;9.258;2023-05-16T04:24:11;97468.28;;;12.43;100.00
21574;BME280;10948;48.706;9.258;2023-05-16T04:26:36;97471.75;;;12.44;100.00
21574;BME280;10948;48.706;9.258;2023-05-16T04:29:02;97468.91;;;12.47;100.00
21574;BME280;10948;48.706;9.258;2023-05-16T04:31:27;97465.22;;;12.26;100.00
21574;BME280;10948;48.706;9.258;2023-05-16T04:33:52;97463.56;;;12.25;100.00
21574;BME280;10948;48.706;9.258;2023-05-16T04:36:19;97468.69;;;12.50;100.00
21574;BME280;10948;48.706;9.258;2023-05-16T04:38:45;97469.59;;;12.38;100.00
21574;BME280;10948;48.706;9.258;2023-05-16T04:41:13;97469.63;;;12.49;100.00
21574;BME280;10948;48.706;9.258;2023-05-16T04:43:38;97469.13;;;12.44;100.00
21574;BME280;10948;48.706;9.258;2023-05-16T04:46:04;97466.19;;;12.48;100.00
21574;BME280;10948;48.706;9.258;2023-05-16T04:48:31;97462.38;;;12.29;100.00
21574;BME280;10948;48.706;9.258;2023-05-16T04:50:56;97471.78;;;12.55;100.00
21574;BME280;10948;48.706;9.258;2023-05-16T04:53:22;97470.69;;;12.70;100.00
21574;BME280;10948;48.706;9.258;2023-05-16T04:55:47;97460.47;;;12.67;100.00
21574;BME280;10948;48.706;9.258;2023-05-16T04:58:12;97462.13;;;12.68;100.00
21574;BME280;10948;48.706;9.258;2023-05-16T05:00:38;97464.09;;;12.53;100.00
21574;BME280;10948;48.706;9.258;2023-05-16T05:03:03;97462.25;;;12.66;100.00
21574;BME280;10948;48.706;9.258;2023-05-16T05:05:28;97459.31;;;12.82;100.00
21574;BME280;10948;48.706;9.258;2023-05-16T05:07:54;97459.00;;;12.86;100.00
21574;BME280;10948;48.706;9.258;2023-05-16T05:10:19;97456.59;;;13.07;100.00
21574;BME280;10948;48.706;9.258;2023-05-16T05:12:44;97456.09;;;13.02;100.00
21574;BME280;10948;48.706;9.258;2023-05-16T05:15:09;97459.25;;;13.18;100.00
21574;BME280;10948;48.706;9.258;2023-05-16T05:17:35;97457.38;;;13.31;100.00
21574;BME280;10948;48.706;9.258;2023-05-16T05:20:01;97465.44;;;13.28;100.00
21574;BME280;10948;48.706;9.258;2023-05-16T05:22:30;97469.03;;;13.38;100.00
21574;BME280;10948;48.706;9.258;2023-05-16T05:24:56;97480.91;;;13.42;100.00
21574;BME280;10948;48.706;9.258;2023-05-16T05:27:21;97478.44;;;13.40;100.00
21574;BME280;10948;48.706;9.258;2023-05-16T05:29:46;97481.72;;;13.31;100.00
21574;BME280;10948;48.706;9.258;2023-05-16T05:32:11;97486.84;;;13.33;100.00
21574;BME280;10948;48.706;9.258;2023-05-16T05:34:37;97487.38;;;13.49;100.00
21574;BME280;10948;48.706;9.258;2023-05-16T05:37:02;97488.88;;;13.40;100.00
21574;BME280;10948;48.706;9.258;2023-05-16T05:39:28;97493.63;;;13.35;100.00
21574;BME280;10948;48.706;9.258;2023-05-16T05:41:53;97490.44;;;13.43;100.00
21574;BME280;10948;48.706;9.258;2023-05-16T05:44:18;97496.53;;;13.20;100.00
21574;BME280;10948;48.706;9.258;2023-05-16T05:46:44;97492.88;;;13.22;100.00
21574;BME280;10948;48.706;9.258;2023-05-16T05:49:09;97492.97;;;13.21;100.00
21574;BME280;10948;48.706;9.258;2023-05-16T05:51:35;97499.19;;;13.31;100.00
21574;BME280;10948;48.706;9.258;2023-05-16T05:54:00;97496.22;;;13.35;100.00
21574;BME280;10948;48.706;9.258;2023-05-16T05:56:26;97491.59;;;13.39;100.00
21574;BME280;10948;48.706;9.258;2023-05-16T05:58:51;97491.56;;;13.17;100.00
21574;BME280;10948;48.706;9.258;2023-05-16T06:01:16;97488.81;;;13.18;100.00
21574;BME280;10948;48.706;9.258;2023-05-16T06:03:42;97496.47;;;13.32;100.00
21574;BME280;10948;48.706;9.258;2023-05-16T06:06:07;97503.47;;;13.32;100.00
21574;BME280;10948;48.706;9.258;2023-05-16T06:08:33;97499.09;;;13.43;100.00
21574;BME280;10948;48.706;9.258;2023-05-16T06:11:00;97493.66;;;13.46;100.00
21574;BME280;10948;48.706;9.258;2023-05-16T06:13:26;97494.59;;;13.56;100.00
21574;BME280;10948;48.706;9.258;2023-05-16T06:15:51;97497.94;;;13.58;100.00
21574;BME280;10948;48.706;9.258;2023-05-16T06:18:16;97502.34;;;13.58;100.00
21574;BME280;10948;48.706;9.258;2023-05-16T06:20:42;97511.50;;;13.63;100.00
21574;BME280;10948;48.706;9.258;2023-05-16T06:23:07;97512.31;;;13.53;100.00
21574;BME280;10948;48.706;9.258;2023-05-16T06:25:33;97507.09;;;13.64;100.00
21574;BME280;10948;48.706;9.258;2023-05-16T06:27:58;97512.34;;;13.64;100.00
21574;BME280;10948;48.706;9.258;2023-05-16T06:30:23;97507.09;;;13.75;100.00
21574;BME280;10948;48.706;9.258;2023-05-16T06:32:49;97511.41;;;13.76;100.00
21574;BME280;10948;48.706;9.258;2023-05-16T06:35:14;97513.31;;;13.85;100.00
21574;BME280;10948;48.706;9.258;2023-05-16T06:37:39;97515.34;;;13.92;100.00
21574;BME280;10948;48.706;9.258;2023-05-16T06:40:05;97516.16;;;14.04;100.00
21574;BME280;10948;48.706;9.258;2023-05-16T06:42:30;97518.31;;;14.10;100.00
21574;BME280;10948;48.706;9.258;2023-05-16T06:44:56;97512.84;;;14.24;100.00
21574;BME280;10948;48.706;9.258;2023-05-16T06:47:21;97513.66;;;14.35;100.00
21574;BME280;10948;48.706;9.258;2023-05-16T06:49:47;97520.81;;;14.22;100.00
21574;BME280;10948;48.706;9.258;2023-05-16T06:52:12;97516.78;;;14.29;100.00
21574;BME280;10948;48.706;9.258;2023-05-16T06:54:37;97514.97;;;14.41;100.00
21574;BME280;10948;48.706;9.258;2023-05-16T06:57:03;97515.16;;;14.60;100.00
21574;BME280;10948;48.706;9.258;2023-05-16T06:59:28;97512.44;;;14.61;100.00
21574;BME280;10948;48.706;9.258;2023-05-16T07:01:53;97509.94;;;14.60;100.00
21574;BME280;10948;48.706;9.258;2023-05-16T07:04:19;97510.94;;;14.37;100.00
21574;BME280;10948;48.706;9.258;2023-05-16T07:06:44;97505.91;;;14.56;100.00
21574;BME280;10948;48.706;9.258;2023-05-16T07:09:10;97512.50;;;14.39;100.00
21574;BME280;10948;48.706;9.258;2023-05-16T07:11:36;97519.22;;;14.53;100.00
21574;BME280;10948;48.706;9.258;2023-05-16T07:14:01;97512.13;;;14.33;100.00
21574;BME280;10948;48.706;9.258;2023-05-16T07:16:27;97512.84;;;14.24;100.00
21574;BME280;10948;48.706;9.258;2023-05-16T07:18:52;97510.69;;;14.51;100.00
21574;BME280;10948;48.706;9.258;2023-05-16T07:21:18;97505.13;;;15.07;100.00
21574;BME280;10948;48.706;9.258;2023-05-16T07:23:43;97510.38;;;15.39;100.00
21574;BME280;10948;48.706;9.258;2023-05-16T07:26:09;97507.47;;;15.62;100.00
21574;BME280;10948;48.706;9.258;2023-05-16T07:28:35;97506.03;;;15.49;100.00
21574;BME280;10948;48.706;9.258;2023-05-16T07:31:00;97507.53;;;15.31;100.00
21574;BME280;10948;48.706;9.258;2023-05-16T07:33:25;97504.41;;;15.78;100.00
21574;BME280;10948;48.706;9.258;2023-05-16T07:35:51;97510.28;;;15.70;100.00
21574;BME280;10948;48.706;9.258;2023-05-16T07:38:18;97513.44;;;15.44;100.00
21574;BME280;10948;48.706;9.258;2023-05-16T07:40:43;97517.09;;;15.21;100.00
21574;BME280;10948;48.706;9.258;2023-05-16T07:43:08;97518.97;;;15.30;100.00
21574;BME280;10948;48.706;9.258;2023-05-16T07:45:34;97530.34;;;15.19;100.00
21574;BME280;10948;48.706;9.258;2023-05-16T07:47:59;97533.28;;;15.37;100.00
21574;BME280;10948;48.706;9.258;2023-05-16T07:50:25;97533.09;;;15.18;100.00
21574;BME280;10948;48.706;9.258;2023-05-16T07:52:50;97546.63;;;15.34;100.00
21574;BME280;10948;48.706;9.258;2023-05-16T07:55:18;97539.22;;;15.28;100.00
21574;BME280;10948;48.706;9.258;2023-05-16T07:57:43;97538.25;;;15.40;100.00
21574;BME280;10948;48.706;9.258;2023-05-16T08:00:09;97540.69;;;15.32;100.00
21574;BME280;10948;48.706;9.258;2023-05-16T08:02:35;97536.84;;;15.36;100.00
21574;BME280;10948;48.706;9.258;2023-05-16T08:05:00;97538.53;;;15.37;100.00
21574;BME280;10948;48.706;9.258;2023-05-16T08:07:26;97539.09;;;15.09;100.00
21574;BME280;10948;48.706;9.258;2023-05-16T08:09:51;97539.31;;;15.06;100.00
21574;BME280;10948;48.706;9.258;2023-05-16T08:12:16;97540.09;;;14.97;100.00
21574;BME280;10948;48.706;9.258;2023-05-16T08:14:41;97549.22;;;14.71;100.00
21574;BME280;10948;48.706;9.258;2023-05-16T08:17:07;97545.81;;;14.91;100.00
21574;BME280;10948;48.706;9.258;2023-05-16T08:19:33;97544.50;;;14.43;100.00
21574;BME280;10948;48.706;9.258;2023-05-16T08:21:58;97545.81;;;14.91;100.00
21574;BME280;10948;48.706;9.258;2023-05-16T08:24:24;97553.75;;;14.69;100.00
21574;BME280;10948;48.706;9.258;2023-05-16T08:26:49;97550.16;;;14.70;100.00
21574;BME280;10948;48.706;9.258;2023-05-16T08:29:15;97556.31;;;14.80;100.00
21574;BME280;10948;48.706;9.258;2023-05-16T08:31:40;97551.34;;;14.66;100.00
21574;BME280;10948;48.706;9.258;2023-05-16T08:34:05;97556.13;;;14.61;100.00
21574;BME280;10948;48.706;9.258;2023-05-16T08:36:31;97550.53;;;14.65;100.00
21574;BME280;10948;48.706;9.258;2023-05-16T08:39:00;97561.69;;;14.78;100.00
21574;BME280;10948;48.706;9.258;2023-05-16T08:41:25;97567.22;;;14.53;100.00
21574;BME280;10948;48.706;9.258;2023-05-16T08:43:51;97576.59;;;14.12;100.00
21574;BME280;10948;48.706;9.258;2023-05-16T08:46:17;97574.25;;;14.42;100.00
21574;BME280;10948;48.706;9.258;2023-05-16T08:48:44;97578.25;;;14.68;100.00
21574;BME280;10948;48.706;9.258;2023-05-16T08:51:10;97570.78;;;14.41;100.00
21574;BME280;10948;48.706;9.258;2023-05-16T08:53:39;97580.09;;;14.34;100.00
21574;BME280;10948;48.706;9.258;2023-05-16T08:56:08;97585.91;;;14.49;100.00
21574;BME280;10948;48.706;9.258;2023-05-16T08:58:34;97585.91;;;14.49;100.00
21574;BME280;10948;48.706;9.258;2023-05-16T09:01:02;97582.56;;;14.25;100.00
21574;BME280;10948;48.706;9.258;2023-05-16T09:03:31;97586.16;;;14.24;100.00
21574;BME280;10948;48.706;9.258;2023-05-16T09:05:56;97586.03;;;14.36;100.00
21574;BME280;10948;48.706;9.258;2023-05-16T09:08:22;97593.16;;;14.34;100.00
21574;BME280;10948;48.706;9.258;2023-05-16T09:10:48;97591.38;;;14.46;100.00
21574;BME280;10948;48.706;9.258;2023-05-16T09:13:13;97586.63;;;14.62;100.00
21574;BME280;10948;48.706;9.258;2023-05-16T09:15:39;97589.13;;;14.41;100.00
21574;BME280;10948;48.706;9.258;2023-05-16T09:18:05;97585.69;;;14.30;100.00
21574;BME280;10948;48.706;9.258;2023-05-16T09:20:35;97590.84;;;13.97;100.00
21574;BME280;10948;48.706;9.258;2023-05-16T09:23:07;97586.38;;;14.21;100.00
21574;BME280;10948;48.706;9.258;2023-05-16T09:25:33;97585.03;;;14.15;100.00
21574;BME280;10948;48.706;9.258;2023-05-16T09:27:59;97585.88;;;14.16;100.00
21574;BME280;10948;48.706;9.258;2023-05-16T09:30:29;97589.94;;;14.09;100.00
21574;BME280;10948;48.706;9.258;2023-05-16T09:32:55;97589.91;;;13.98;100.00
21574;BME280;10948;48.706;9.258;2023-05-16T09:35:20;97583.47;;;14.13;100.00
21574;BME280;10948;48.706;9.258;2023-05-16T09:37:46;97588.06;;;14.22;100.00
21574;BME280;10948;48.706;9.258;2023-05-16T09:40:11;97596.09;;;14.08;100.00
21574;BME280;10948;48.706;9.258;2023-05-16T09:42:37;97592.28;;;14.12;100.00
21574;BME280;10948;48.706;9.258;2023-05-16T09:45:05;97591.25;;;14.36;100.00
21574;BME280;10948;48.706;9.258;2023-05-16T09:47:30;97591.69;;;14.08;100.00
21574;BME280;10948;48.706;9.258;2023-05-16T09:49:56;97598.41;;;14.23;100.00
21574;BME280;10948;48.706;9.258;2023-05-16T09:52:25;97601.97;;;14.33;100.00
21574;BME280;10948;48.706;9.258;2023-05-16T09:54:50;97605.28;;;14.13;100.00
21574;BME280;10948;48.706;9.258;2023-05-16T09:57:19;97595.88;;;14.11;100.00
21574;BME280;10948;48.706;9.258;2023-05-16T09:59:45;97606.59;;;14.19;100.00
21574;BME280;10948;48.706;9.258;2023-05-16T10:02:11;97598.34;;;14.01;100.00
21574;BME280;10948;48.706;9.258;2023-05-16T10:04:37;97595.63;;;14.03;100.00
21574;BME280;10948;48.706;9.258;2023-05-16T10:07:02;97595.03;;;14.10;100.00
21574;BME280;10948;48.706;9.258;2023-05-16T10:09:30;97588.25;;;13.97;100.00
21574;BME280;10948;48.706;9.258;2023-05-16T10:11:56;97597.66;;;13.99;100.00
21574;BME280;10948;48.706;9.258;2023-05-16T10:14:22;97598.72;;;13.97;100.00
21574;BME280;10948;48.706;9.258;2023-05-16T10:16:49;97592.03;;;14.15;100.00
21574;BME280;10948;48.706;9.258;2023-05-16T10:19:16;97589.66;;;14.01;100.00
21574;BME280;10948;48.706;9.258;2023-05-16T10:21:45;97583.25;;;14.16;100.00
21574;BME280;10948;48.706;9.258;2023-05-16T10:24:11;97582.53;;;14.14;100.00
21574;BME280;10948;48.706;9.258;2023-05-16T10:26:38;97590.84;;;14.08;100.00
21574;BME280;10948;48.706;9.258;2023-05-16T10:29:03;97596.81;;;14.10;100.00
21574;BME280;10948;48.706;9.258;2023-05-16T10:31:29;97595.63;;;14.14;100.00
21574;BME280;10948;48.706;9.258;2023-05-16T10:33:55;97597.53;;;14.12;100.00
21574;BME280;10948;48.706;9.258;2023-05-16T10:36:21;97597.50;;;14.01;100.00
21574;BME280;10948;48.706;9.258;2023-05-16T10:38:47;97601.06;;;13.89;100.00
21574;BME280;10948;48.706;9.258;2023-05-16T10:41:13;97591.81;;;13.96;100.00
21574;BME280;10948;48.706;9.258;2023-05-16T10:43:38;97598.00;;;14.06;100.00
21574;BME280;10948;48.706;9.258;2023-05-16T10:46:04;97596.53;;;14.02;100.00
21574;BME280;10948;48.706;9.258;2023-05-16T10:48:32;97592.53;;;13.98;100.00
21574;BME280;10948;48.706;9.258;2023-05-16T10:50:58;97587.56;;;14.28;100.00
21574;BME280;10948;48.706;9.258;2023-05-16T10:53:33;97589.84;;;14.32;100.00
21574;BME280;10948;48.706;9.258;2023-05-16T11:03:39;97603.03;;;14.20;100.00
21574;BME280;10948;48.706;9.258;2023-05-16T11:06:24;97605.03;;;14.05;100.00
21574;BME280;10948;48.706;9.258;2023-05-16T11:09:35;97597.06;;;14.18;100.00
21574;BME280;10948;48.706;9.258;2023-05-16T11:11:46;97605.88;;;14.17;100.00
21574;BME280;10948;48.706;9.258;2023-05-16T11:14:21;97601.97;;;14.33;100.00
21574;BME280;10948;48.706;9.258;2023-05-16T11:16:48;97608.53;;;14.50;100.00
21574;BME280;10948;48.706;9.258;2023-05-16T11:19:17;97600.19;;;14.45;100.00
21574;BME280;10948;48.706;9.258;2023-05-16T11:24:30;97606.22;;;14.12;100.00
21574;BME280;10948;48.706;9.258;2023-05-16T11:26:56;97611.38;;;14.25;100.00
21574;BME280;10948;48.706;9.258;2023-05-16T11:29:23;97609.66;;;14.13;100.00
21574;BME280;10948;48.706;9.258;2023-05-16T11:31:48;97614.94;;;14.24;100.00
21574;BME280;10948;48.706;9.258;2023-05-16T11:34:14;97611.59;;;14.33;100.00
21574;BME280;10948;48.706;9.258;2023-05-16T11:36:40;97618.97;;;14.28;100.00
21574;BME280;10948;48.706;9.258;2023-05-16T11:39:06;97618.94;;;14.17;100.00
21574;BME280;10948;48.706;9.258;2023-05-16T11:41:33;97618.19;;;13.93;100.00
21574;BME280;10948;48.706;9.258;2023-05-16T11:43:59;97622.22;;;13.86;100.00
21574;BME280;10948;48.706;9.258;2023-05-16T11:46:25;97621.91;;;14.01;100.00
21574;BME280;10948;48.706;9.258;2023-05-16T11:48:51;97621.06;;;14.01;100.00
21574;BME280;10948;48.706;9.258;2023-05-16T11:51:17;97627.41;;;13.64;100.00
21574;BME280;10948;48.706;9.258;2023-05-16T11:53:44;97627.56;;;13.73;100.00
21574;BME280;10948;48.706;9.258;2023-05-16T11:56:10;97630.50;;;13.69;100.00
21574;BME280;10948;48.706;9.258;2023-05-16T11:58:36;97637.13;;;13.62;100.00
21574;BME280;10948;48.706;9.258;2023-05-16T12:01:02;97644.59;;;13.55;100.00
21574;BME280;10948;48.706;9.258;2023-05-16T12:03:28;97636.94;;;13.41;100.00
21574;BME280;10948;48.706;9.258;2023-05-16T12:05:57;97647.31;;;13.30;100.00
21574;BME280;10948;48.706;9.258;2023-05-16T12:08:23;97643.44;;;13.36;100.00
21574;BME280;10948;48.706;9.258;2023-05-16T12:10:49;97646.97;;;13.35;100.00
21574;BME280;10948;48.706;9.258;2023-05-16T12:13:16;97640.88;;;13.47;100.00
21574;BME280;10948;48.706;9.258;2023-05-16T12:15:42;97638.81;;;13.74;100.00
21574;BME280;10948;48.706;9.258;2023-05-16T12:18:08;97640.66;;;13.50;100.00
21574;BME280;10948;48.706;9.258;2023-05-16T12:20:33;97645.81;;;13.39;100.00
21574;BME280;10948;48.706;9.258;2023-05-16T12:22:59;97644.06;;;13.74;100.00
21574;BME280;10948;48.706;9.258;2023-05-16T12:25:28;97641.25;;;13.88;100.00
21574;BME280;10948;48.706;9.258;2023-05-16T12:27:58;97635.25;;;13.75;100.00
21574;BME280;10948;48.706;9.258;2023-05-16T12:30:24;97650.50;;;13.81;100.00
21574;BME280;10948;48.706;9.258;2023-05-16T12:35:22;97653.44;;;13.65;100.00
21574;BME280;10948;48.706;9.258;2023-05-16T12:37:48;97663.31;;;13.73;100.00
21574;BME280;10948;48.706;9.258;2023-05-16T12:40:13;97659.28;;;13.80;100.00
21574;BME280;10948;48.706;9.258;2023-05-16T12:42:39;97654.06;;;13.80;100.00
21574;BME280;10948;48.706;9.258;2023-05-16T12:45:13;97661.13;;;13.56;100.00
21574;BME280;10948;48.706;9.258;2023-05-16T12:47:39;97660.66;;;13.85;100.00
21574;BME280;10948;48.706;9.258;2023-05-16T12:50:08;97649.72;;;14.02;100.00
21574;BME280;10948;48.706;9.258;2023-05-16T12:52:33;97646.41;;;14.11;100.00
21574;BME280;10948;48.706;9.258;2023-05-16T12:55:00;97649.91;;;14.34;100.00
21574;BME280;10948;48.706;9.258;2023-05-16T12:57:27;97655.28;;;14.43;100.00
21574;BME280;10948;48.706;9.258;2023-05-16T12:59:52;97651.97;;;14.63;100.00